Time;durP1;ratioP1;P1;durP2;ratioP2;P2;SDS_P1;SDS_P2;PMS_P1;PMS_P2;Temp;Humidity;BMP_temperature;BMP_pressure;BME280_temperature;BME280_humidity;BME280_pressure;Samples;Min_cycle;Max_cycle;Signal;HPM_P1;HPM_P2
2023/05/01 00:02:21;;;;;;;3.60;2.50;;;10.20;99.90;;;;;;5030149;28;20585;-78
2023/05/01 00:04:46;;;;;;;2.43;2.20;;;10.10;95.80;;;;;;5029972;28;20201;-78
2023/05/01 00:07:12;;;;;;;5.10;2.17;;;10.10;95.50;;;;;;5030698;28;20200;-80
2023/05/01 00:09:38;;;;;;;5.43;2.37;;;10.10;99.90;;;;;;5032818;28;20550;-78
2023/05/01 00:12:03;;;;;;;6.87;2.07;;;10.10;99.90;;;;;;5033899;28;20196;-78
2023/05/01 00:14:29;;;;;;;9.37;2.50;;;10.00;99.90;;;;;;5032233;28;20683;-79
2023/05/01 00:16:54;;;;;;;4.30;2.13;;;10.00;99.90;;;;;;5033706;28;20674;-78
2023/05/01 00:19:20;;;;;;;5.00;2.37;;;9.90;99.90;;;;;;5032128;28;20297;-78
2023/05/01 00:21:47;;;;;;;5.10;2.00;;;9.90;99.90;;;;;;5032178;28;20697;-78
2023/05/01 00:24:13;;;;;;;3.03;2.00;;;9.90;99.90;;;;;;5033610;28;20168;-78
2023/05/01 00:26:38;;;;;;;4.87;2.10;;;9.80;99.90;;;;;;5033807;28;20220;-79
2023/05/01 00:29:04;;;;;;;4.83;2.23;;;9.70;99.90;;;;;;5033517;28;20334;-79
2023/05/01 00:31:29;;;;;;;4.30;2.10;;;9.70;99.90;;;;;;5033235;28;20208;-78
2023/05/01 00:33:55;;;;;;;3.00;1.90;;;9.60;99.90;;;;;;5032338;28;20200;-78
2023/05/01 00:36:21;;;;;;;5.07;1.60;;;9.60;99.90;;;;;;5033296;28;20199;-79
2023/05/01 00:38:46;;;;;;;3.43;2.40;;;9.60;99.90;;;;;;5032390;28;20176;-79
2023/05/01 00:41:12;;;;;;;3.80;2.27;;;9.50;99.90;;;;;;5033848;28;20206;-78
2023/05/01 00:43:37;;;;;;;5.07;2.20;;;9.50;99.90;;;;;;5033096;28;20206;-78
2023/05/01 00:46:03;;;;;;;5.70;1.90;;;9.50;99.90;;;;;;5031986;28;20228;-77
2023/05/01 00:48:29;;;;;;;4.03;2.10;;;9.40;99.90;;;;;;5031534;28;20168;-78
2023/05/01 00:50:56;;;;;;;6.13;2.60;;;9.40;99.90;;;;;;5031187;28;20267;-77
2023/05/01 00:53:23;;;;;;;2.50;1.93;;;9.30;99.90;;;;;;5031222;28;20622;-78
2023/05/01 00:55:49;;;;;;;3.10;2.40;;;9.30;99.90;;;;;;5031677;28;20195;-77
2023/05/01 00:58:16;;;;;;;3.07;1.70;;;9.30;99.90;;;;;;5031313;28;20255;-78
2023/05/01 01:00:42;;;;;;;3.63;2.57;;;9.30;99.90;;;;;;5030971;28;20226;-78
2023/05/01 01:03:08;;;;;;;3.73;2.33;;;9.20;99.90;;;;;;5031205;28;20173;-78
2023/05/01 01:05:40;;;;;;;4.23;2.20;;;9.20;99.90;;;;;;5032525;28;20195;-78
2023/05/01 01:08:38;;;;;;;5.47;2.00;;;9.20;99.90;;;;;;5030967;28;20236;-78
2023/05/01 01:11:03;;;;;;;4.97;2.10;;;9.10;99.90;;;;;;5030969;28;20184;-79
2023/05/01 01:13:41;;;;;;;5.37;2.30;;;9.10;99.90;;;;;;5030757;28;20196;-78
2023/05/01 01:16:33;;;;;;;5.33;2.47;;;9.10;99.90;;;;;;5030898;28;20216;-78
2023/05/01 01:19:04;;;;;;;5.37;2.17;;;9.10;99.90;;;;;;5032456;28;20153;-78
2023/05/01 01:21:31;;;;;;;5.23;2.20;;;9.00;99.90;;;;;;5031890;28;20772;-78
2023/05/01 01:24:15;;;;;;;4.73;2.37;;;9.10;99.90;;;;;;5032193;28;20176;-78
2023/05/01 01:27:12;;;;;;;6.57;2.63;;;9.10;99.90;;;;;;5030863;28;20204;-78
2023/05/01 01:29:56;;;;;;;4.57;2.10;;;9.00;99.90;;;;;;5030792;28;20229;-78
2023/05/01 01:33:10;;;;;;;4.47;2.13;;;9.10;99.90;;;;;;5032067;28;20182;-78
2023/05/01 01:35:37;;;;;;;6.37;2.60;;;9.10;99.90;;;;;;5045015;28;20216;-77
2023/05/01 01:38:15;;;;;;;3.10;2.10;;;9.00;99.90;;;;;;5032212;28;20168;-79
2023/05/01 01:41:00;;;;;;;3.40;2.40;;;9.10;99.90;;;;;;5031202;28;20283;-79
2023/05/01 01:43:28;;;;;;;3.87;2.10;;;9.00;99.90;;;;;;5031400;28;20164;-79
2023/05/01 01:45:59;;;;;;;7.87;2.50;;;9.00;99.90;;;;;;5031293;28;20640;-78
2023/05/01 01:48:32;;;;;;;5.27;2.07;;;9.00;99.90;;;;;;5030511;28;20540;-77
2023/05/01 01:50:59;;;;;;;4.40;1.97;;;9.00;99.90;;;;;;5030460;28;20175;-78
2023/05/01 01:53:28;;;;;;;5.57;2.30;;;9.00;99.90;;;;;;5030190;28;20332;-78
2023/05/01 01:55:56;;;;;;;5.70;2.40;;;9.00;99.90;;;;;;5030491;28;20620;-78
2023/05/01 01:58:25;;;;;;;3.20;2.30;;;9.00;99.90;;;;;;5030135;28;20172;-78
2023/05/01 02:00:52;;;;;;;6.10;2.00;;;9.00;99.90;;;;;;5030287;28;20212;-79
2023/05/01 02:03:20;;;;;;;3.53;2.13;;;8.90;99.90;;;;;;5031150;28;20164;-77
2023/05/01 02:05:48;;;;;;;3.30;2.20;;;9.00;99.90;;;;;;5029937;28;20168;-78
2023/05/01 02:08:15;;;;;;;8.07;2.67;;;8.90;99.90;;;;;;5031464;28;20194;-78
2023/05/01 02:10:41;;;;;;;6.07;2.70;;;8.90;99.90;;;;;;5029961;28;20184;-78
2023/05/01 02:13:08;;;;;;;2.63;1.93;;;8.90;99.90;;;;;;5030567;28;20502;-78
2023/05/01 02:15:34;;;;;;;3.57;2.13;;;8.90;99.90;;;;;;5031666;28;20187;-77
2023/05/01 02:18:04;;;;;;;8.13;2.10;;;8.90;99.90;;;;;;5030302;28;20199;-79
2023/05/01 02:20:31;;;;;;;4.67;2.07;;;8.90;99.90;;;;;;5030684;28;20200;-78
2023/05/01 02:22:57;;;;;;;7.00;1.90;;;8.90;99.90;;;;;;5031652;28;20172;-78
2023/05/01 02:25:23;;;;;;;4.80;2.30;;;8.80;99.90;;;;;;5032522;28;20203;-79
2023/05/01 02:27:55;;;;;;;4.83;2.70;;;8.80;99.90;;;;;;5030789;28;20324;-78
2023/05/01 02:30:21;;;;;;;5.37;2.00;;;8.80;99.90;;;;;;5025303;28;20181;-78
2023/05/01 02:32:46;;;;;;;3.30;2.20;;;8.80;99.90;;;;;;5026917;28;20679;-79
2023/05/01 02:35:12;;;;;;;6.97;2.53;;;8.80;99.90;;;;;;5011680;28;20176;-78
2023/05/01 02:37:38;;;;;;;5.60;2.30;;;8.80;99.90;;;;;;5011675;28;20208;-79
2023/05/01 02:40:06;;;;;;;5.83;2.50;;;8.80;99.90;;;;;;5014747;28;20173;-78
2023/05/01 02:42:34;;;;;;;4.27;2.07;;;8.80;99.90;;;;;;5029487;28;20168;-78
2023/05/01 02:45:04;;;;;;;3.17;2.57;;;8.80;99.90;;;;;;5029860;28;20538;-78
2023/05/01 02:47:33;;;;;;;5.60;2.27;;;8.80;99.90;;;;;;5030775;28;20280;-78
2023/05/01 02:50:00;;;;;;;2.93;2.17;;;8.80;99.90;;;;;;5028752;28;20197;-78
2023/05/01 02:52:26;;;;;;;3.67;2.37;;;8.80;99.90;;;;;;5030747;28;20194;-79
2023/05/01 02:54:52;;;;;;;4.67;2.27;;;8.70;99.90;;;;;;5029252;28;20623;-78
2023/05/01 02:57:19;;;;;;;3.13;2.23;;;8.70;99.90;;;;;;5030678;28;20191;-78
2023/05/01 02:59:45;;;;;;;7.90;2.40;;;8.70;99.90;;;;;;5029335;28;20639;-78
2023/05/01 03:02:11;;;;;;;5.67;2.30;;;8.70;99.90;;;;;;5029433;28;20249;-79
2023/05/01 03:04:36;;;;;;;5.63;2.30;;;8.60;99.90;;;;;;5029531;28;20176;-79
2023/05/01 03:07:03;;;;;;;5.40;2.40;;;8.70;99.90;;;;;;5031017;28;20252;-79
2023/05/01 03:09:30;;;;;;;4.80;2.40;;;8.60;99.90;;;;;;5030805;28;20189;-79
2023/05/01 03:11:56;;;;;;;4.43;2.27;;;8.60;99.90;;;;;;5029778;28;20184;-79
2023/05/01 03:14:21;;;;;;;5.23;2.40;;;8.60;99.90;;;;;;5029073;28;20678;-79
2023/05/01 03:16:47;;;;;;;3.57;2.20;;;8.60;99.90;;;;;;5029122;28;20710;-78
2023/05/01 03:19:12;;;;;;;2.30;1.90;;;8.60;99.90;;;;;;5030995;28;20176;-78
2023/05/01 03:21:38;;;;;;;5.30;2.03;;;8.50;99.90;;;;;;5029778;28;20696;-78
2023/05/01 03:24:04;;;;;;;6.13;2.27;;;8.50;99.90;;;;;;5030361;28;20543;-78
2023/05/01 03:26:30;;;;;;;4.73;2.60;;;8.50;99.90;;;;;;5030371;28;20200;-79
2023/05/01 03:28:55;;;;;;;2.87;2.10;;;8.50;99.90;;;;;;5030113;28;20247;-78
2023/05/01 03:31:21;;;;;;;5.37;2.07;;;8.50;99.90;;;;;;5015747;28;20683;-78
2023/05/01 03:33:47;;;;;;;5.23;2.53;;;8.50;99.90;;;;;;5010695;28;20187;-78
2023/05/01 03:36:13;;;;;;;5.83;2.10;;;8.50;99.90;;;;;;5010779;28;20200;-78
2023/05/01 03:38:38;;;;;;;2.20;1.80;;;8.40;99.90;;;;;;5011970;28;20192;-77
2023/05/01 03:41:04;;;;;;;4.03;2.20;;;8.40;99.90;;;;;;5024796;28;21099;-78
2023/05/01 03:43:30;;;;;;;4.87;2.10;;;8.40;99.90;;;;;;5010579;28;20539;-78
2023/05/01 03:45:56;;;;;;;2.50;2.00;;;8.30;99.90;;;;;;5010168;28;20196;-78
2023/05/01 03:48:23;;;;;;;4.80;2.27;;;8.40;99.90;;;;;;5010444;28;20264;-78
2023/05/01 03:50:49;;;;;;;5.27;2.07;;;8.30;99.90;;;;;;5009349;28;20553;-78
2023/05/01 03:53:15;;;;;;;3.67;2.30;;;8.30;99.90;;;;;;5010249;28;20173;-79
2023/05/01 03:55:41;;;;;;;5.90;2.27;;;8.30;99.90;;;;;;5009041;28;20674;-78
2023/05/01 03:58:06;;;;;;;5.07;2.13;;;8.20;99.90;;;;;;5008782;28;20200;-79
2023/05/01 04:00:32;;;;;;;4.93;2.43;;;8.20;99.90;;;;;;5010326;28;20283;-79
2023/05/01 04:02:58;;;;;;;3.97;2.20;;;8.20;99.90;;;;;;5008936;28;20177;-79
2023/05/01 04:05:24;;;;;;;6.03;2.00;;;8.20;99.90;;;;;;5010065;28;20185;-78
2023/05/01 04:07:49;;;;;;;5.37;2.20;;;8.10;99.90;;;;;;5010284;28;20630;-78
2023/05/01 04:10:16;;;;;;;4.40;2.20;;;8.20;99.90;;;;;;5010228;28;20243;-78
2023/05/01 04:12:41;;;;;;;5.70;2.40;;;8.10;99.90;;;;;;5009833;28;20189;-78
2023/05/01 04:15:08;;;;;;;2.57;1.87;;;8.20;99.90;;;;;;5008521;28;20234;-78
2023/05/01 04:17:35;;;;;;;5.53;2.33;;;8.10;99.90;;;;;;5009830;28;20203;-79
2023/05/01 04:20:01;;;;;;;4.90;2.43;;;8.10;99.90;;;;;;5009599;28;20212;-78
2023/05/01 04:22:26;;;;;;;6.77;2.20;;;8.10;99.90;;;;;;5009901;28;20205;-78
2023/05/01 04:24:53;;;;;;;2.27;1.60;;;8.10;99.90;;;;;;5008476;28;20743;-78
2023/05/01 04:27:18;;;;;;;6.60;2.13;;;8.10;99.90;;;;;;5008464;28;20196;-78
2023/05/01 04:29:44;;;;;;;5.90;2.10;;;8.00;99.90;;;;;;5009366;28;20197;-78
2023/05/01 04:32:10;;;;;;;5.27;1.87;;;8.00;99.90;;;;;;5008382;28;20177;-79
2023/05/01 04:34:35;;;;;;;2.73;2.07;;;8.00;99.90;;;;;;5008380;28;20173;-79
2023/05/01 04:37:02;;;;;;;2.50;2.30;;;8.00;99.90;;;;;;5009608;28;20205;-78
2023/05/01 04:39:28;;;;;;;7.00;2.50;;;8.10;99.90;;;;;;5009548;28;20544;-78
2023/05/01 04:41:53;;;;;;;3.73;2.47;;;8.00;99.90;;;;;;5009453;28;20203;-77
2023/05/01 04:44:19;;;;;;;3.63;2.30;;;8.00;99.90;;;;;;5009860;28;20170;-79
2023/05/01 04:46:45;;;;;;;5.70;2.23;;;8.00;99.90;;;;;;5008093;28;20198;-78
2023/05/01 04:49:10;;;;;;;3.77;2.47;;;8.00;99.90;;;;;;5009282;28;20172;-77
2023/05/01 04:51:36;;;;;;;5.10;2.30;;;8.00;99.90;;;;;;5009336;28;20177;-78
2023/05/01 04:54:03;;;;;;;4.27;2.67;;;8.00;99.90;;;;;;5010488;28;20192;-78
2023/05/01 04:56:29;;;;;;;2.23;1.77;;;8.10;99.90;;;;;;5012624;28;20616;-78
2023/05/01 04:58:55;;;;;;;4.43;2.57;;;8.10;99.90;;;;;;5011279;28;20246;-78
2023/05/01 05:01:20;;;;;;;5.77;2.30;;;8.20;99.90;;;;;;5012590;28;20200;-78
2023/05/01 05:03:46;;;;;;;4.00;2.13;;;8.10;99.90;;;;;;5012258;28;20169;-77
2023/05/01 05:06:11;;;;;;;4.10;2.43;;;8.20;99.90;;;;;;5012060;28;20567;-78
2023/05/01 05:08:37;;;;;;;4.87;2.03;;;8.20;99.90;;;;;;5012293;28;20648;-78
2023/05/01 05:11:02;;;;;;;2.53;1.80;;;8.20;99.90;;;;;;5012020;28;20173;-78
2023/05/01 05:13:28;;;;;;;5.83;2.27;;;8.30;99.90;;;;;;5010594;28;20195;-78
2023/05/01 05:15:54;;;;;;;5.73;2.33;;;8.30;99.90;;;;;;5012088;28;20181;-78
2023/05/01 05:18:19;;;;;;;3.33;2.47;;;8.40;99.90;;;;;;5027426;28;20527;-77
2023/05/01 05:20:45;;;;;;;6.83;2.07;;;8.40;99.90;;;;;;5012427;28;20246;-79
2023/05/01 05:23:11;;;;;;;5.80;2.03;;;8.50;99.90;;;;;;5011366;28;20181;-78
2023/05/01 05:25:37;;;;;;;7.03;2.07;;;8.60;99.90;;;;;;5010463;28;20613;-78
2023/05/01 05:28:02;;;;;;;5.53;2.30;;;8.60;99.90;;;;;;5010888;28;20256;-77
2023/05/01 05:30:28;;;;;;;6.63;2.50;;;8.60;99.90;;;;;;5011645;28;20656;-76
2023/05/01 05:32:53;;;;;;;5.13;2.60;;;8.80;99.90;;;;;;5011711;28;20177;-76
2023/05/01 05:35:19;;;;;;;4.27;2.30;;;8.80;99.90;;;;;;5011609;28;20176;-77
2023/05/01 05:37:45;;;;;;;4.43;2.63;;;8.90;99.90;;;;;;5011506;28;20242;-77
2023/05/01 05:40:11;;;;;;;2.87;2.30;;;9.00;99.90;;;;;;5010182;28;20506;-77
2023/05/01 05:42:36;;;;;;;6.13;2.00;;;9.10;99.90;;;;;;5011441;28;20173;-77
2023/05/01 05:45:02;;;;;;;8.37;2.40;;;9.10;99.90;;;;;;5011401;28;20544;-77
2023/05/01 05:47:28;;;;;;;3.17;2.17;;;9.20;99.90;;;;;;5011542;28;20575;-77
2023/05/01 05:49:54;;;;;;;3.20;2.30;;;9.30;99.90;;;;;;5010648;28;20647;-77
2023/05/01 05:52:20;;;;;;;2.73;2.13;;;9.40;99.90;;;;;;5011418;28;20166;-78
2023/05/01 05:54:46;;;;;;;3.40;2.30;;;9.40;99.90;;;;;;5011302;28;20608;-77
2023/05/01 05:57:11;;;;;;;2.90;2.30;;;9.50;99.90;;;;;;5026437;28;20664;-78
2023/05/01 05:59:37;;;;;;;3.30;2.13;;;9.60;99.90;;;;;;5011181;28;20640;-77
2023/05/01 06:02:03;;;;;;;6.80;2.47;;;9.70;99.90;;;;;;5010906;28;20200;-78
2023/05/01 06:04:28;;;;;;;4.53;2.43;;;9.80;99.90;;;;;;5008818;28;20196;-77
2023/05/01 06:06:54;;;;;;;6.17;2.27;;;9.90;99.90;;;;;;5011268;28;20211;-76
2023/05/01 06:09:20;;;;;;;5.23;2.83;;;10.00;99.90;;;;;;5011226;28;20554;-77
2023/05/01 06:11:46;;;;;;;4.77;3.50;;;10.00;99.90;;;;;;5011686;28;20183;-78
2023/05/01 06:14:12;;;;;;;5.63;3.67;;;10.10;99.90;;;;;;5010138;28;20208;-78
2023/05/01 06:16:37;;;;;;;6.87;5.87;;;10.20;99.90;;;;;;5011017;28;20285;-78
2023/05/01 06:19:03;;;;;;;5.83;4.10;;;10.40;99.90;;;;;;5011079;28;20174;-78
2023/05/01 06:21:31;;;;;;;5.10;4.00;;;10.50;99.90;;;;;;5009904;28;20673;-77
2023/05/01 06:23:56;;;;;;;6.90;3.63;;;10.60;99.90;;;;;;5012359;28;20219;-79
2023/05/01 06:26:22;;;;;;;3.53;2.50;;;10.70;99.90;;;;;;5013684;28;20193;-79
2023/05/01 06:28:48;;;;;;;2.80;2.20;;;10.80;99.90;;;;;;5014352;28;20685;-79
2023/05/01 06:31:14;;;;;;;5.20;2.00;;;10.90;99.90;;;;;;5018406;28;20264;-78
2023/05/01 06:33:40;;;;;;;2.87;2.00;;;11.00;99.90;;;;;;5018592;28;20188;-79
2023/05/01 06:36:05;;;;;;;2.03;1.80;;;11.10;99.90;;;;;;5019398;28;20193;-78
2023/05/01 06:38:31;;;;;;;1.83;1.50;;;11.30;99.90;;;;;;5022599;28;20180;-79
2023/05/01 06:40:57;;;;;;;2.40;1.70;;;11.40;50.60;;;;;;5023951;28;20196;-79
2023/05/01 06:43:26;;;;;;;5.47;1.50;;;11.50;1.00;;;;;;5040301;28;20181;-78
2023/05/01 06:45:52;;;;;;;3.13;1.80;;;11.70;1.00;;;;;;5037485;28;20193;-79
2023/05/01 06:48:18;;;;;;;2.00;1.27;;;11.80;1.00;;;;;;5023500;28;20177;-78
2023/05/01 06:50:43;;;;;;;2.63;1.70;;;11.90;1.00;;;;;;5021733;28;20645;-78
2023/05/01 06:53:09;;;;;;;1.87;1.40;;;12.00;1.00;;;;;;5018923;28;20215;-78
2023/05/01 06:55:34;;;;;;;2.90;1.67;;;12.10;1.00;;;;;;5017119;28;20577;-78
2023/05/01 06:58:00;;;;;;;5.50;1.63;;;12.20;1.00;;;;;;5016773;28;20196;-77
2023/05/01 07:00:25;;;;;;;2.77;1.57;;;12.30;1.00;;;;;;5017158;28;20257;-77
2023/05/01 07:02:51;;;;;;;3.53;1.80;;;12.40;1.00;;;;;;5015266;28;20179;-78
2023/05/01 07:05:17;;;;;;;5.23;1.87;;;12.50;1.00;;;;;;5015610;28;20264;-78
2023/05/01 07:07:43;;;;;;;4.27;1.27;;;12.60;1.00;;;;;;5015059;28;20185;-78
2023/05/01 07:10:09;;;;;;;1.33;1.23;;;12.70;1.00;;;;;;5014819;28;20180;-77
2023/05/01 07:12:34;;;;;;;3.17;1.37;;;12.70;99.90;;;;;;5016595;28;20263;-78
2023/05/01 07:15:00;;;;;;;2.70;1.50;;;12.80;99.90;;;;;;5016535;28;20177;-77
2023/05/01 07:17:25;;;;;;;3.63;1.70;;;12.90;99.90;;;;;;5014315;28;20208;-77
2023/05/01 07:19:51;;;;;;;3.83;1.50;;;13.00;99.90;;;;;;5014458;28;20188;-78
2023/05/01 07:22:18;;;;;;;3.30;1.53;;;13.00;99.90;;;;;;5014494;28;20283;-78
2023/05/01 07:24:43;;;;;;;2.57;1.23;;;13.10;99.90;;;;;;5022928;28;20179;-78
2023/05/01 07:27:09;;;;;;;3.07;1.40;;;13.20;99.90;;;;;;5021984;28;20232;-78
2023/05/01 07:29:38;;;;;;;4.87;1.60;;;13.20;99.90;;;;;;5015019;28;20284;-78
2023/05/01 07:32:05;;;;;;;3.57;1.33;;;13.30;99.90;;;;;;5016054;28;20187;-78
2023/05/01 07:34:30;;;;;;;3.60;1.73;;;13.40;99.90;;;;;;5016251;28;20181;-78
2023/05/01 07:36:56;;;;;;;3.27;1.23;;;13.50;99.90;;;;;;5013272;28;20740;-77
2023/05/01 07:39:22;;;;;;;2.17;1.50;;;13.50;99.90;;;;;;5012082;28;20648;-80
2023/05/01 07:41:47;;;;;;;3.27;1.33;;;13.60;99.90;;;;;;5010514;28;20225;-77
2023/05/01 07:44:13;;;;;;;6.63;1.53;;;13.60;99.90;;;;;;5008879;28;20176;-77
2023/05/01 07:46:38;;;;;;;3.13;1.50;;;13.70;99.90;;;;;;5010385;28;20212;-77
2023/05/01 07:49:04;;;;;;;4.37;1.73;;;13.80;99.90;;;;;;5010032;28;20667;-76
2023/05/01 07:51:31;;;;;;;2.37;1.60;;;13.90;99.90;;;;;;5010179;28;20254;-77
2023/05/01 07:53:56;;;;;;;2.97;1.33;;;13.90;99.90;;;;;;5008670;28;20181;-77
2023/05/01 07:56:22;;;;;;;4.47;1.80;;;14.00;99.90;;;;;;5009921;28;20265;-77
2023/05/01 07:58:47;;;;;;;3.30;1.93;;;14.20;99.90;;;;;;5009783;28;20619;-77
2023/05/01 08:01:13;;;;;;;3.70;1.50;;;14.10;99.90;;;;;;5010710;28;20675;-76
2023/05/01 08:03:39;;;;;;;3.43;1.60;;;14.20;99.90;;;;;;5016506;28;20729;-77
2023/05/01 08:06:05;;;;;;;4.50;1.20;;;14.30;99.90;;;;;;5029262;28;20608;-76
2023/05/01 08:08:30;;;;;;;2.40;1.30;;;14.40;99.90;;;;;;5030418;28;20460;-78
2023/05/01 08:10:56;;;;;;;2.33;1.17;;;14.50;99.90;;;;;;5030545;28;20180;-81
2023/05/01 08:13:21;;;;;;;2.57;1.20;;;14.50;99.90;;;;;;5030651;28;20592;-78
2023/05/01 08:15:47;;;;;;;5.07;1.50;;;14.70;99.90;;;;;;5031203;28;20191;-77
2023/05/01 08:18:20;;;;;;;3.17;1.50;;;14.70;99.90;;;;;;5028824;28;20181;-76
2023/05/01 08:20:49;;;;;;;4.67;1.40;;;14.80;99.90;;;;;;5030067;28;20336;-77
2023/05/01 08:23:16;;;;;;;4.93;1.60;;;14.90;1.00;;;;;;5027316;28;20669;-76
2023/05/01 08:25:41;;;;;;;3.37;1.67;;;14.90;1.00;;;;;;5030338;28;20180;-77
2023/05/01 08:28:07;;;;;;;5.73;1.43;;;15.10;1.00;;;;;;5030959;28;20165;-76
2023/05/01 08:30:33;;;;;;;2.33;1.50;;;15.10;1.00;;;;;;5033556;28;20713;-75
2023/05/01 08:32:58;;;;;;;3.47;1.70;;;15.20;1.00;;;;;;5033157;28;20181;-76
2023/05/01 08:35:24;;;;;;;3.63;1.63;;;15.20;1.00;;;;;;5033061;28;20184;-77
2023/05/01 08:37:49;;;;;;;3.70;1.37;;;15.30;1.00;;;;;;5033214;28;20203;-77
2023/05/01 08:40:16;;;;;;;4.03;1.43;;;15.30;1.00;;;;;;5032348;28;20229;-76
2023/05/01 08:42:42;;;;;;;2.60;1.50;;;15.30;1.00;;;;;;5032793;28;20225;-77
2023/05/01 08:45:09;;;;;;;3.10;1.77;;;15.40;1.00;;;;;;5031709;28;20181;-77
2023/05/01 08:47:39;;;;;;;2.00;1.40;;;15.40;99.90;;;;;;5031345;28;20196;-77
2023/05/01 08:50:10;;;;;;;2.30;1.33;;;15.40;10.30;;;;;;5032625;28;20248;-77
2023/05/01 08:52:41;;;;;;;3.37;1.83;;;15.40;1.00;;;;;;5031313;28;20236;-77
2023/05/01 08:55:11;;;;;;;2.90;1.60;;;15.50;1.00;;;;;;5031224;28;20189;-77
2023/05/01 08:57:37;;;;;;;3.57;2.00;;;15.60;7.50;;;;;;5034888;28;20192;-77
2023/05/01 09:00:04;;;;;;;4.70;1.80;;;15.70;99.90;;;;;;5031489;28;20195;-77
2023/05/01 09:02:33;;;;;;;2.23;1.60;;;15.80;99.90;;;;;;5032651;28;20199;-77
2023/05/01 09:05:00;;;;;;;1.70;1.40;;;15.90;99.90;;;;;;5031039;28;20176;-76
2023/05/01 09:07:26;;;;;;;3.57;1.73;;;16.00;1.00;;;;;;5035470;28;20196;-78
2023/05/01 09:09:51;;;;;;;4.47;1.60;;;16.00;99.90;;;;;;5040333;28;20172;-77
2023/05/01 09:12:23;;;;;;;5.17;1.70;;;16.10;99.90;;;;;;5032415;28;20192;-77
2023/05/01 09:14:54;;;;;;;3.83;1.70;;;16.30;1.00;;;;;;5032799;28;20169;-77
2023/05/01 09:17:22;;;;;;;4.53;1.80;;;16.30;99.90;;;;;;5032440;28;20207;-77
2023/05/01 09:19:48;;;;;;;4.07;1.80;;;16.40;99.90;;;;;;5033459;28;20255;-75
2023/05/01 09:22:15;;;;;;;3.17;1.70;;;16.40;99.90;;;;;;5031207;28;20577;-77
2023/05/01 09:24:40;;;;;;;3.53;1.70;;;16.50;99.90;;;;;;5032615;28;20172;-77
2023/05/01 09:27:06;;;;;;;2.90;1.40;;;16.60;99.90;;;;;;5032662;28;20199;-77
2023/05/01 09:29:43;;;;;;;2.47;1.67;;;16.70;94.40;;;;;;5034173;28;20172;-77
2023/05/01 09:32:22;;;;;;;4.73;1.80;;;16.70;1.00;;;;;;5031062;28;20259;-77
2023/05/01 09:34:49;;;;;;;4.17;1.73;;;16.90;1.00;;;;;;5033459;28;20169;-77
2023/05/01 09:37:28;;;;;;;4.07;1.87;;;16.90;1.00;;;;;;5033392;28;20197;-77
2023/05/01 09:40:11;;;;;;;3.40;1.63;;;17.00;1.00;;;;;;5030585;28;20182;-77
2023/05/01 09:42:48;;;;;;;4.53;1.90;;;17.00;1.00;;;;;;5032877;28;20184;-77
2023/05/01 09:45:14;;;;;;;2.67;1.80;;;17.20;1.00;;;;;;5032457;28;20242;-76
2023/05/01 09:47:44;;;;;;;2.57;1.67;;;17.30;1.00;;;;;;5032406;28;20276;-77
2023/05/01 09:50:31;;;;;;;3.30;1.60;;;17.40;49.60;;;;;;5032797;28;20172;-77
2023/05/01 09:52:57;;;;;;;4.27;2.27;;;17.50;99.90;;;;;;5033742;28;20206;-77
2023/05/01 09:55:23;;;;;;;3.13;1.87;;;17.60;99.90;;;;;;5032176;28;20168;-77
2023/05/01 09:57:49;;;;;;;2.97;1.73;;;17.70;1.00;;;;;;5032000;28;20237;-77
2023/05/01 10:00:15;;;;;;;4.30;2.07;;;17.80;99.90;;;;;;5031951;28;20173;-77
2023/05/01 10:02:44;;;;;;;2.60;1.70;;;17.80;99.90;;;;;;5031523;28;20173;-77
2023/05/01 10:05:11;;;;;;;2.00;1.70;;;17.80;99.90;;;;;;5031362;28;20611;-76
2023/05/01 10:07:38;;;;;;;3.03;1.87;;;18.00;1.00;;;;;;5031711;28;20191;-76
2023/05/01 10:10:16;;;;;;;2.87;1.70;;;18.00;1.00;;;;;;5031444;28;20197;-77
2023/05/01 10:12:42;;;;;;;2.70;1.67;;;17.90;1.00;;;;;;5036196;28;20205;-78
2023/05/01 10:15:08;;;;;;;4.00;1.90;;;18.00;1.00;;;;;;5037168;28;20262;-78
2023/05/01 10:17:35;;;;;;;3.83;1.80;;;18.00;99.90;;;;;;5036435;28;20755;-78
2023/05/01 10:20:00;;;;;;;2.17;1.93;;;17.90;99.90;;;;;;5037645;28;20168;-78
2023/05/01 10:22:27;;;;;;;2.63;1.70;;;18.00;99.90;;;;;;5034358;28;20203;-78
2023/05/01 10:24:53;;;;;;;3.67;1.60;;;18.00;99.90;;;;;;5034087;28;20179;-78
2023/05/01 10:27:21;;;;;;;4.17;1.70;;;18.10;99.90;;;;;;5037653;28;20188;-78
2023/05/01 10:29:51;;;;;;;5.17;2.03;;;18.00;99.90;;;;;;5033820;28;20179;-77
2023/05/01 10:32:16;;;;;;;2.90;2.00;;;18.10;1.00;;;;;;5037120;28;20169;-78
2023/05/01 10:34:47;;;;;;;4.70;2.23;;;18.20;99.90;;;;;;5037729;28;20184;-78
2023/05/01 10:37:20;;;;;;;2.80;1.90;;;18.20;1.00;;;;;;5035276;28;20333;-79
2023/05/01 10:39:46;;;;;;;3.40;2.13;;;18.30;99.90;;;;;;5034775;28;20169;-77
2023/05/01 10:42:15;;;;;;;3.63;2.43;;;18.20;99.90;;;;;;5033556;28;20292;-78
2023/05/01 10:44:41;;;;;;;3.97;2.17;;;18.40;41.10;;;;;;5034173;28;20168;-78
2023/05/01 10:47:30;;;;;;;3.30;2.00;;;18.30;1.00;;;;;;5035136;28;20188;-78
2023/05/01 10:50:06;;;;;;;2.83;2.10;;;18.30;99.90;;;;;;5033067;28;20318;-78
2023/05/01 10:53:10;;;;;;;5.10;2.33;;;18.40;99.90;;;;;;5032965;28;20184;-78
2023/05/01 10:55:37;;;;;;;3.90;2.30;;;18.40;99.90;;;;;;5034366;28;20180;-78
2023/05/01 10:58:03;;;;;;;3.70;2.30;;;18.50;99.90;;;;;;5032930;28;20204;-78
2023/05/01 11:00:29;;;;;;;5.07;2.30;;;18.40;1.00;;;;;;5033617;28;20168;-78
2023/05/01 11:03:20;;;;;;;4.47;2.07;;;18.50;1.00;;;;;;5033429;28;20168;-78
2023/05/01 11:06:06;;;;;;;3.50;1.77;;;18.50;99.90;;;;;;5032398;28;20179;-78
2023/05/01 11:08:37;;;;;;;2.70;2.00;;;18.60;41.70;;;;;;5031938;28;20192;-78
2023/05/01 11:11:26;;;;;;;3.40;2.03;;;18.60;54.20;;;;;;5032908;28;20173;-78
2023/05/01 11:13:58;;;;;;;4.43;1.80;;;18.60;1.00;;;;;;5039288;28;20279;-75
2023/05/01 11:16:42;;;;;;;3.33;1.73;;;18.70;1.00;;;;;;5028622;28;20196;-75
2023/05/01 11:19:21;;;;;;;2.90;1.57;;;18.80;1.00;;;;;;5030108;28;20160;-76
2023/05/01 11:21:48;;;;;;;2.40;1.60;;;18.80;1.00;;;;;;5033468;28;20538;-79
2023/05/01 11:24:16;;;;;;;3.97;2.37;;;18.90;1.00;;;;;;5029255;28;20177;-77
2023/05/01 11:26:42;;;;;;;3.73;1.80;;;19.00;1.00;;;;;;5029779;28;20188;-76
2023/05/01 11:29:09;;;;;;;2.57;1.90;;;19.00;99.90;;;;;;5026580;28;20191;-76
2023/05/01 11:31:35;;;;;;;3.17;1.80;;;19.00;99.90;;;;;;5029725;28;20177;-76
2023/05/01 11:34:01;;;;;;;2.63;1.77;;;19.00;99.90;;;;;;5029733;28;20173;-76
2023/05/01 11:36:46;;;;;;;3.40;1.67;;;19.20;1.00;;;;;;5029679;28;20571;-75
2023/05/01 11:39:16;;;;;;;3.70;2.17;;;19.10;1.00;;;;;;5029900;28;20259;-76
2023/05/01 11:41:41;;;;;;;1.80;1.50;;;19.30;1.00;;;;;;5030089;28;20184;-76
2023/05/01 11:44:07;;;;;;;2.77;1.93;;;19.30;99.90;;;;;;5029814;28;20172;-76
2023/05/01 11:46:32;;;;;;;3.17;1.77;;;19.30;1.00;;;;;;5028125;28;20292;-76
2023/05/01 11:49:00;;;;;;;3.07;1.67;;;19.30;1.00;;;;;;5029782;28;20169;-76
2023/05/01 11:51:26;;;;;;;3.27;1.77;;;19.40;1.00;;;;;;5029494;28;20168;-77
2023/05/01 11:54:04;;;;;;;2.83;1.70;;;19.30;1.00;;;;;;5029466;28;20199;-76
2023/05/01 11:56:30;;;;;;;3.63;2.30;;;19.40;99.90;;;;;;5029675;28;20268;-76
2023/05/01 11:58:58;;;;;;;2.60;1.80;;;19.40;99.90;;;;;;5030138;28;20537;-76
2023/05/01 12:01:34;;;;;;;2.50;1.90;;;19.50;99.90;;;;;;5029591;28;20256;-76
2023/05/01 12:04:01;;;;;;;1.77;1.60;;;19.50;99.90;;;;;;5031054;28;20172;-76
2023/05/01 12:06:46;;;;;;;1.90;1.33;;;19.50;1.00;;;;;;5031966;28;20652;-76
2023/05/01 12:09:17;;;;;;;1.70;1.50;;;19.60;1.00;;;;;;5031599;28;20176;-75
2023/05/01 12:11:45;;;;;;;2.30;1.30;;;19.70;2.50;;;;;;5031421;28;20187;-76
2023/05/01 12:14:11;;;;;;;2.80;1.40;;;19.90;89.20;;;;;;5031514;28;20707;-75
2023/05/01 12:16:39;;;;;;;2.93;1.30;;;20.00;99.90;;;;;;5032702;28;20192;-75
2023/05/01 12:19:05;;;;;;;1.10;1.00;;;20.10;99.90;;;;;;5031414;28;20177;-76
2023/05/01 12:21:31;;;;;;;2.63;1.57;;;20.10;1.00;;;;;;5033153;28;20196;-75
2023/05/01 12:24:14;;;;;;;3.07;1.40;;;20.30;99.90;;;;;;5033019;28;20543;-75
2023/05/01 12:26:41;;;;;;;3.13;1.27;;;20.30;99.90;;;;;;5032674;28;20187;-77
2023/05/01 12:29:10;;;;;;;3.97;1.53;;;20.20;40.80;;;;;;5032588;28;20169;-75
2023/05/01 12:31:44;;;;;;;3.07;1.47;;;20.20;99.90;;;;;;5032544;28;20183;-76
2023/05/01 12:34:10;;;;;;;5.47;1.43;;;20.20;1.00;;;;;;5031265;28;20164;-76
2023/05/01 12:36:36;;;;;;;2.37;1.90;;;20.10;49.40;;;;;;5032370;28;20218;-76
2023/05/01 12:39:03;;;;;;;2.40;1.87;;;19.90;1.00;;;;;;5031073;28;20184;-75
2023/05/01 12:41:33;;;;;;;2.40;1.97;;;20.00;1.00;;;;;;5032257;28;20612;-77
2023/05/01 12:43:58;;;;;;;3.87;2.50;;;20.20;1.00;;;;;;5032247;28;20160;-76
2023/05/01 12:46:24;;;;;;;2.10;1.50;;;20.30;1.00;;;;;;5032487;28;20348;-75
2023/05/01 12:48:49;;;;;;;1.90;1.30;;;20.40;1.00;;;;;;5030890;28;20229;-76
2023/05/01 12:51:19;;;;;;;2.40;1.63;;;20.50;1.00;;;;;;5030930;28;20179;-77
2023/05/01 12:53:46;;;;;;;3.17;1.73;;;20.70;1.00;;;;;;5032202;28;20184;-76
2023/05/01 12:56:22;;;;;;;2.27;1.63;;;20.80;1.00;;;;;;5032043;28;20188;-76
2023/05/01 12:58:48;;;;;;;2.30;1.50;;;20.70;99.90;;;;;;5032334;28;20172;-77